Time;durP1;ratioP1;P1;durP2;ratioP2;P2;SDS_P1;SDS_P2;PMS_P1;PMS_P2;Temp;Humidity;BMP_temperature;BMP_pressure;BME280_temperature;BME280_humidity;BME280_pressure;Samples;Min_cycle;Max_cycle;Signal;HPM_P1;HPM_P2
2021/12/02 00:01:17;;;;;;;4.78;0.30;;;3.90;99.90;;;;;;5095894;28;20452;-65
2021/12/02 00:03:43;;;;;;;7.68;1.48;;;3.80;99.90;;;;;;5098119;28;20048;-65
2021/12/02 00:06:11;;;;;;;11.52;0.93;;;3.80;99.90;;;;;;5064340;28;20060;-65
2021/12/02 00:08:37;;;;;;;5.15;1.58;;;3.90;99.90;;;;;;5063104;28;20040;-65
2021/12/02 00:11:03;;;;;;;4.70;0.95;;;3.80;99.90;;;;;;5062713;28;20029;-64
2021/12/02 00:13:31;;;;;;;9.45;1.77;;;3.80;99.90;;;;;;5061802;28;20118;-65
2021/12/02 00:16:04;;;;;;;10.77;0.75;;;3.80;99.90;;;;;;5060104;28;20040;-65
2021/12/02 00:21:03;;;;;;;9.57;0.82;;;3.80;99.90;;;;;;5061146;28;20138;-65
2021/12/02 00:21:20;;;;;;;6.15;0.57;;;3.80;99.90;;;;;;5058086;28;20147;-65
2021/12/02 00:23:58;;;;;;;6.95;0.80;;;3.80;99.90;;;;;;5093882;28;20041;-65
2021/12/02 00:26:24;;;;;;;10.18;0.60;;;3.80;99.90;;;;;;5060307;28;20083;-65
2021/12/02 00:28:57;;;;;;;7.07;0.77;;;3.80;99.90;;;;;;5061839;28;20146;-65
2021/12/02 00:31:25;;;;;;;7.10;0.75;;;3.80;99.90;;;;;;5092023;28;20097;-64
2021/12/02 00:33:53;;;;;;;8.38;0.57;;;3.80;99.90;;;;;;5061111;28;20380;-64
2021/12/02 00:36:20;;;;;;;4.15;0.45;;;3.80;99.90;;;;;;5092251;28;20036;-65
2021/12/02 00:38:47;;;;;;;8.40;1.42;;;3.80;99.90;;;;;;5060218;28;20041;-65
2021/12/02 00:41:15;;;;;;;9.43;0.70;;;3.70;99.90;;;;;;5063414;28;20032;-65
2021/12/02 00:43:41;;;;;;;8.48;0.80;;;3.70;99.90;;;;;;5060867;28;20415;-65
2021/12/02 00:46:11;;;;;;;6.75;0.60;;;3.70;99.90;;;;;;5058893;28;20059;-65
2021/12/02 00:48:38;;;;;;;3.03;0.30;;;3.70;99.90;;;;;;5060998;28;22119;-65
2021/12/02 00:51:05;;;;;;;5.35;0.70;;;3.70;99.90;;;;;;5059411;28;20040;-65
2021/12/02 00:53:33;;;;;;;6.65;0.60;;;3.70;99.90;;;;;;5059716;28;20036;-65
2021/12/02 00:56:04;;;;;;;5.70;1.05;;;3.70;99.90;;;;;;5060345;28;20037;-65
2021/12/02 00:58:31;;;;;;;10.25;0.55;;;3.70;99.90;;;;;;5061460;28;20483;-64
2021/12/02 01:00:57;;;;;;;7.20;0.60;;;3.70;99.90;;;;;;5059075;28;20040;-65
2021/12/02 01:03:24;;;;;;;5.25;0.45;;;3.80;99.90;;;;;;5091277;28;20040;-65
2021/12/02 01:05:51;;;;;;;4.75;0.40;;;3.70;99.90;;;;;;5059683;28;20150;-65
2021/12/02 01:08:18;;;;;;;7.75;0.82;;;3.70;99.90;;;;;;5060680;28;20044;-65
2021/12/02 01:10:45;;;;;;;3.97;0.40;;;3.80;99.90;;;;;;5059466;28;20047;-65
2021/12/02 01:13:10;;;;;;;5.22;0.63;;;3.80;99.90;;;;;;5061544;28;20422;-65
2021/12/02 01:15:37;;;;;;;4.80;0.40;;;3.70;99.90;;;;;;5062372;28;20036;-64
2021/12/02 01:18:03;;;;;;;7.28;0.40;;;3.80;99.90;;;;;;5059863;28;20044;-65
2021/12/02 01:20:31;;;;;;;5.60;0.50;;;3.70;99.90;;;;;;5059772;28;20068;-65
2021/12/02 01:23:00;;;;;;;5.45;0.77;;;3.70;99.90;;;;;;5059376;28;20131;-65
2021/12/02 01:25:30;;;;;;;4.28;0.47;;;3.60;99.90;;;;;;5060870;28;20588;-65
2021/12/02 01:27:57;;;;;;;4.45;0.40;;;3.60;99.90;;;;;;5058822;28;20051;-65
2021/12/02 01:30:25;;;;;;;5.13;0.50;;;3.60;99.90;;;;;;5059044;28;20047;-65
2021/12/02 01:32:52;;;;;;;3.22;0.55;;;3.60;99.90;;;;;;5060617;28;20131;-65
2021/12/02 01:35:19;;;;;;;4.55;0.30;;;3.60;99.90;;;;;;5061497;28;20044;-65
2021/12/02 01:37:46;;;;;;;5.70;0.52;;;3.70;99.90;;;;;;5060541;28;20044;-65
2021/12/02 01:40:11;;;;;;;7.55;1.17;;;3.60;99.90;;;;;;5060312;28;20045;-65
2021/12/02 01:42:39;;;;;;;6.28;0.40;;;3.70;99.90;;;;;;5059367;28;20047;-65
2021/12/02 01:45:06;;;;;;;3.75;0.95;;;3.70;99.90;;;;;;5059813;28;20040;-65
2021/12/02 01:47:32;;;;;;;5.18;0.40;;;3.80;99.90;;;;;;5062115;28;20105;-65
2021/12/02 01:50:03;;;;;;;8.63;0.77;;;3.70;99.90;;;;;;5061629;28;20061;-65
2021/12/02 01:52:32;;;;;;;5.45;0.65;;;3.70;99.90;;;;;;5064037;28;20048;-65
2021/12/02 01:55:13;;;;;;;7.05;0.70;;;3.80;99.90;;;;;;5063610;28;20992;-64
2021/12/02 01:57:50;;;;;;;9.05;0.63;;;3.70;99.90;;;;;;5049125;28;20052;-64
2021/12/02 02:00:20;;;;;;;7.07;0.50;;;3.60;99.90;;;;;;5063546;28;20928;-64
2021/12/02 02:02:47;;;;;;;4.40;0.50;;;3.60;99.90;;;;;;5065185;28;20062;-64
2021/12/02 02:05:15;;;;;;;3.30;0.40;;;3.50;99.90;;;;;;5062532;28;20094;-64
2021/12/02 02:08:07;;;;;;;4.32;0.50;;;3.40;99.90;;;;;;5090188;28;20045;-64
2021/12/02 02:10:36;;;;;;;3.45;0.25;;;3.40;99.90;;;;;;5062394;28;20047;-64
2021/12/02 02:13:12;;;;;;;8.20;0.40;;;3.40;99.90;;;;;;5064725;28;20115;-64
2021/12/02 02:15:40;;;;;;;2.42;0.30;;;3.40;99.90;;;;;;5066985;28;20417;-64
2021/12/02 02:18:14;;;;;;;2.13;0.30;;;3.30;99.90;;;;;;5065024;28;20126;-64
2021/12/02 02:20:42;;;;;;;5.45;0.43;;;3.40;99.90;;;;;;5065840;28;21513;-65
2021/12/02 02:23:11;;;;;;;3.38;0.30;;;3.30;99.90;;;;;;5064495;28;20119;-64
2021/12/02 02:25:38;;;;;;;2.50;0.30;;;3.30;99.90;;;;;;5062523;28;20048;-64
2021/12/02 02:28:04;;;;;;;1.92;0.20;;;3.30;99.90;;;;;;5065013;28;20491;-64
2021/12/02 02:30:29;;;;;;;5.55;0.55;;;3.30;99.90;;;;;;5063430;28;20047;-64
2021/12/02 02:32:55;;;;;;;3.95;0.30;;;3.20;99.90;;;;;;5066037;28;20119;-65
2021/12/02 02:35:21;;;;;;;3.83;0.40;;;3.10;99.90;;;;;;5064809;28;20051;-64
2021/12/02 02:37:47;;;;;;;2.35;0.20;;;3.10;99.90;;;;;;5060601;28;20028;-65
2021/12/02 02:40:14;;;;;;;4.72;0.35;;;3.00;99.90;;;;;;5064419;28;20048;-64
2021/12/02 02:42:44;;;;;;;3.80;0.20;;;3.00;99.90;;;;;;5067637;28;20036;-64
2021/12/02 02:45:10;;;;;;;3.58;0.43;;;3.00;99.90;;;;;;5061004;28;20426;-64
2021/12/02 02:47:35;;;;;;;5.00;0.70;;;2.90;99.90;;;;;;5060638;28;20041;-65
2021/12/02 02:50:01;;;;;;;2.10;0.20;;;2.90;99.90;;;;;;5062060;28;20060;-64
2021/12/02 02:52:28;;;;;;;2.22;0.30;;;2.90;99.90;;;;;;5062244;28;20097;-64
2021/12/02 02:54:54;;;;;;;1.27;0.10;;;3.00;99.90;;;;;;5045777;28;20033;-65
2021/12/02 02:57:23;;;;;;;2.45;0.30;;;2.90;99.90;;;;;;5062313;28;20066;-64
2021/12/02 03:00:06;;;;;;;4.40;0.50;;;2.90;99.90;;;;;;5064827;28;20055;-65
2021/12/02 03:02:56;;;;;;;1.60;0.10;;;2.80;99.90;;;;;;5093660;27;20119;-64
2021/12/02 03:07:54;;;;;;;3.97;0.50;;;2.80;99.90;;;;;;5060611;28;20052;-64
2021/12/02 03:10:43;;;;;;;2.20;0.38;;;2.70;99.90;;;;;;5046802;28;20033;-64
2021/12/02 03:13:22;;;;;;;2.05;0.30;;;2.70;99.90;;;;;;5066930;28;20123;-64
2021/12/02 03:18:35;;;;;;;2.17;0.20;;;2.60;99.90;;;;;;5062875;28;20052;-64
2021/12/02 03:21:01;;;;;;;3.25;0.38;;;2.60;99.90;;;;;;5064044;28;20048;-65
2021/12/02 03:23:27;;;;;;;1.98;0.20;;;2.50;99.90;;;;;;5065899;28;20461;-64
2021/12/02 03:25:52;;;;;;;5.40;0.40;;;2.50;99.90;;;;;;5077363;28;20037;-64
2021/12/02 03:28:18;;;;;;;2.25;0.20;;;2.50;99.90;;;;;;5065791;28;20165;-64
2021/12/02 03:30:44;;;;;;;7.40;0.70;;;2.50;99.90;;;;;;5092893;28;20080;-64
2021/12/02 03:33:09;;;;;;;2.35;0.30;;;2.50;99.90;;;;;;5061681;28;20050;-64
2021/12/02 03:35:35;;;;;;;7.00;0.30;;;2.50;99.90;;;;;;5062404;28;20053;-64
2021/12/02 03:38:01;;;;;;;3.05;0.30;;;2.50;99.90;;;;;;5061183;28;20062;-64
2021/12/02 03:40:26;;;;;;;3.33;0.35;;;2.50;99.90;;;;;;5063602;28;20058;-65
2021/12/02 03:42:53;;;;;;;5.55;0.30;;;2.50;99.90;;;;;;5063842;28;20463;-65
2021/12/02 03:45:23;;;;;;;6.45;0.30;;;2.60;99.90;;;;;;5065337;28;20032;-64
2021/12/02 03:47:48;;;;;;;1.98;0.30;;;2.30;99.90;;;;;;5062677;28;20044;-64
2021/12/02 03:50:14;;;;;;;5.93;0.50;;;2.60;99.90;;;;;;5094025;27;20041;-64
2021/12/02 03:52:40;;;;;;;2.42;0.40;;;2.60;99.90;;;;;;5093808;27;20040;-64
2021/12/02 03:55:06;;;;;;;4.38;0.70;;;2.60;99.90;;;;;;5062950;28;20525;-64
2021/12/02 03:57:32;;;;;;;5.30;1.13;;;2.70;99.90;;;;;;5064804;28;20043;-64
2021/12/02 03:59:59;;;;;;;2.88;0.43;;;2.70;99.90;;;;;;5064957;28;20059;-64
2021/12/02 04:02:25;;;;;;;2.85;0.35;;;2.70;99.90;;;;;;5061155;28;20116;-64
2021/12/02 04:04:50;;;;;;;4.95;0.65;;;2.70;99.90;;;;;;5063060;28;20471;-64
2021/12/02 04:07:18;;;;;;;1.27;0.20;;;2.70;99.90;;;;;;5061101;28;20039;-64
2021/12/02 04:09:45;;;;;;;2.10;0.40;;;2.70;99.90;;;;;;5061996;28;20056;-64
2021/12/02 04:12:34;;;;;;;2.05;0.20;;;2.70;99.90;;;;;;5062056;28;20391;-64
2021/12/02 04:15:06;;;;;;;1.02;0.20;;;2.80;99.90;;;;;;5050318;28;20126;-64
2021/12/02 04:17:43;;;;;;;4.30;0.40;;;2.80;99.90;;;;;;5065686;28;20487;-64
2021/12/02 04:20:14;;;;;;;4.55;0.20;;;2.80;99.90;;;;;;5065499;28;20064;-65
2021/12/02 04:22:40;;;;;;;1.55;0.20;;;2.80;99.90;;;;;;5064955;28;20662;-65
2021/12/02 04:25:07;;;;;;;1.42;0.40;;;2.90;99.90;;;;;;5063723;28;20033;-65
2021/12/02 04:27:33;;;;;;;2.88;0.25;;;2.80;99.90;;;;;;5063304;28;20090;-64
2021/12/02 04:29:59;;;;;;;4.07;0.20;;;2.80;99.90;;;;;;5066050;28;20044;-64
2021/12/02 04:32:24;;;;;;;4.43;0.47;;;2.60;99.90;;;;;;5063826;28;20036;-64
2021/12/02 04:34:50;;;;;;;3.17;0.20;;;2.70;99.90;;;;;;5065159;28;20097;-64
2021/12/02 04:37:15;;;;;;;1.50;0.10;;;2.60;99.90;;;;;;5066499;28;20067;-64
2021/12/02 04:39:41;;;;;;;0.52;0.22;;;2.60;99.90;;;;;;5064254;28;20068;-64
2021/12/02 04:42:06;;;;;;;1.85;0.43;;;2.70;99.90;;;;;;5063477;28;20048;-64
2021/12/02 04:44:32;;;;;;;3.85;0.17;;;2.50;99.90;;;;;;5063951;28;20032;-65
2021/12/02 04:46:58;;;;;;;3.70;0.30;;;2.50;99.90;;;;;;5063488;28;20200;-65
2021/12/02 04:49:23;;;;;;;0.68;0.13;;;2.60;99.90;;;;;;5063263;28;20155;-65
2021/12/02 04:51:49;;;;;;;4.93;0.30;;;2.50;99.90;;;;;;5064419;28;20438;-64
2021/12/02 04:54:15;;;;;;;5.45;0.30;;;2.60;99.90;;;;;;5096210;28;20068;-64
2021/12/02 04:56:41;;;;;;;1.67;0.10;;;2.60;99.90;;;;;;5064129;28;20044;-65
2021/12/02 04:59:07;;;;;;;3.00;0.32;;;2.60;99.90;;;;;;5067011;28;20048;-64
2021/12/02 05:01:33;;;;;;;1.45;0.20;;;2.50;99.90;;;;;;5063714;28;20083;-65
2021/12/02 05:03:58;;;;;;;2.10;0.50;;;2.50;99.90;;;;;;5064232;28;20076;-65
2021/12/02 05:06:24;;;;;;;1.00;0.10;;;2.50;99.90;;;;;;5065296;28;20044;-64
2021/12/02 05:08:49;;;;;;;2.15;0.10;;;2.40;99.90;;;;;;5063655;28;20398;-65
2021/12/02 05:11:15;;;;;;;3.08;0.30;;;2.40;99.90;;;;;;5064632;28;20431;-65
2021/12/02 05:13:41;;;;;;;4.32;0.40;;;2.40;99.90;;;;;;5062916;28;20045;-65
2021/12/02 05:16:06;;;;;;;2.70;0.20;;;2.50;99.90;;;;;;5061627;28;20048;-65
2021/12/02 05:18:32;;;;;;;1.83;0.13;;;2.40;99.90;;;;;;5061577;28;20040;-64
2021/12/02 05:20:59;;;;;;;1.30;0.20;;;2.40;99.90;;;;;;5063966;28;20052;-65
2021/12/02 05:23:25;;;;;;;3.35;0.55;;;2.30;99.90;;;;;;5061705;28;20115;-65
2021/12/02 05:25:51;;;;;;;3.08;0.15;;;2.30;99.90;;;;;;5062916;28;20119;-65
2021/12/02 05:28:18;;;;;;;3.13;0.10;;;2.40;99.90;;;;;;5063560;28;20048;-65
2021/12/02 05:30:44;;;;;;;3.17;0.20;;;2.30;99.90;;;;;;5065667;28;20094;-65
2021/12/02 05:33:10;;;;;;;1.50;0.10;;;2.60;99.90;;;;;;5064625;28;20484;-65
2021/12/02 05:35:36;;;;;;;3.08;0.10;;;2.40;99.90;;;;;;5064748;28;20497;-65
2021/12/02 05:38:02;;;;;;;2.05;0.10;;;2.30;99.90;;;;;;5063396;28;20048;-65
2021/12/02 05:40:28;;;;;;;2.67;0.20;;;2.40;99.90;;;;;;5065535;28;21740;-65
2021/12/02 05:42:54;;;;;;;1.95;0.20;;;2.50;99.90;;;;;;5063378;28;20131;-65
2021/12/02 05:45:19;;;;;;;3.03;0.77;;;2.40;99.90;;;;;;5063743;28;20051;-65
2021/12/02 05:47:45;;;;;;;1.67;0.20;;;2.50;99.90;;;;;;5063306;28;20041;-65
2021/12/02 05:50:12;;;;;;;0.93;0.17;;;2.50;99.90;;;;;;5064880;28;20053;-65
2021/12/02 05:52:38;;;;;;;4.18;0.22;;;2.60;99.90;;;;;;5079895;28;20047;-65
2021/12/02 05:55:04;;;;;;;1.50;0.15;;;2.60;99.90;;;;;;5064564;28;20127;-65
2021/12/02 05:57:31;;;;;;;1.27;0.13;;;2.60;99.90;;;;;;5093378;28;20040;-65
2021/12/02 05:59:57;;;;;;;2.08;0.10;;;2.60;99.90;;;;;;5063215;28;20051;-65
2021/12/02 06:02:23;;;;;;;3.92;0.25;;;2.60;99.90;;;;;;5063024;28;20362;-65
2021/12/02 06:04:52;;;;;;;1.02;0.10;;;2.70;99.90;;;;;;5064207;28;20505;-65
2021/12/02 06:07:20;;;;;;;2.20;0.20;;;2.70;99.90;;;;;;5064917;28;20033;-65
2021/12/02 06:09:46;;;;;;;0.93;0.10;;;2.70;99.90;;;;;;5060291;28;20097;-65
2021/12/02 06:12:12;;;;;;;3.70;0.20;;;2.70;99.90;;;;;;5065302;28;20040;-64
2021/12/02 06:14:38;;;;;;;3.38;0.10;;;2.70;99.90;;;;;;5064354;28;20040;-64
2021/12/02 06:17:05;;;;;;;2.85;0.10;;;2.70;99.90;;;;;;5062695;28;20054;-64
2021/12/02 06:19:31;;;;;;;2.50;0.20;;;2.80;99.90;;;;;;5061320;28;20049;-64
2021/12/02 06:21:57;;;;;;;3.15;0.20;;;2.80;99.90;;;;;;5061139;28;20032;-65
2021/12/02 06:24:42;;;;;;;3.30;0.47;;;2.80;99.90;;;;;;5061449;28;20040;-65
2021/12/02 06:27:09;;;;;;;2.10;0.20;;;2.90;99.90;;;;;;5061017;28;20119;-65
2021/12/02 06:29:37;;;;;;;3.30;0.20;;;2.80;99.90;;;;;;5061872;28;20976;-65
2021/12/02 06:32:04;;;;;;;1.67;0.20;;;2.90;99.90;;;;;;5060864;28;20040;-65
2021/12/02 06:34:31;;;;;;;5.20;0.60;;;2.90;99.90;;;;;;5060789;28;20387;-65
2021/12/02 06:36:57;;;;;;;2.33;0.30;;;2.90;99.90;;;;;;5063811;28;20048;-65
2021/12/02 06:39:22;;;;;;;3.58;0.20;;;2.90;99.90;;;;;;5062492;28;20053;-65
2021/12/02 06:41:48;;;;;;;2.42;0.25;;;3.00;99.90;;;;;;5064818;28;20039;-65
2021/12/02 06:44:15;;;;;;;2.92;0.30;;;3.00;99.90;;;;;;5063482;28;20114;-64
2021/12/02 06:46:40;;;;;;;3.33;0.20;;;3.00;99.90;;;;;;5062948;28;20124;-65
2021/12/02 06:49:06;;;;;;;2.63;0.30;;;3.00;99.90;;;;;;5065111;28;20130;-65
2021/12/02 06:51:32;;;;;;;6.95;0.43;;;3.10;99.90;;;;;;5095414;27;20563;-64
2021/12/02 06:53:58;;;;;;;2.78;0.40;;;3.10;99.90;;;;;;5063843;28;20918;-64
2021/12/02 06:56:23;;;;;;;1.25;0.40;;;3.00;99.90;;;;;;5094745;28;20433;-64
2021/12/02 06:58:56;;;;;;;5.28;0.93;;;3.00;99.90;;;;;;5062749;28;20407;-65
2021/12/02 07:01:22;;;;;;;5.93;0.50;;;3.00;99.90;;;;;;5063427;28;20037;-65
2021/12/02 07:03:48;;;;;;;1.65;0.30;;;3.00;99.90;;;;;;5063211;28;20033;-64
2021/12/02 07:06:14;;;;;;;2.45;0.20;;;3.00;99.90;;;;;;5062444;28;20051;-65
2021/12/02 07:08:39;;;;;;;1.67;0.10;;;2.90;99.90;;;;;;5064582;28;20041;-65
2021/12/02 07:11:08;;;;;;;1.83;0.10;;;3.00;99.90;;;;;;5094038;28;20041;-64
2021/12/02 07:13:38;;;;;;;1.67;0.30;;;3.00;99.90;;;;;;5063961;28;20055;-64
2021/12/02 07:16:04;;;;;;;2.30;0.20;;;3.00;99.90;;;;;;5063522;28;20090;-65
2021/12/02 07:18:35;;;;;;;1.60;0.20;;;2.90;99.90;;;;;;5063217;28;20095;-64
2021/12/02 07:21:01;;;;;;;4.00;0.10;;;3.00;99.90;;;;;;5064408;28;20547;-64
2021/12/02 07:23:27;;;;;;;2.60;0.20;;;3.00;99.90;;;;;;5060419;28;20047;-65
2021/12/02 07:25:52;;;;;;;2.22;0.20;;;3.00;99.90;;;;;;5056826;28;20056;-65
2021/12/02 07:28:19;;;;;;;3.03;0.40;;;3.00;99.90;;;;;;5059579;28;20050;-65
2021/12/02 07:30:52;;;;;;;1.33;0.20;;;3.00;99.90;;;;;;5056354;28;20044;-64
2021/12/02 07:33:19;;;;;;;3.70;0.30;;;3.00;99.90;;;;;;5061388;28;20048;-65
2021/12/02 07:35:45;;;;;;;1.52;0.30;;;3.00;99.90;;;;;;5065635;28;20498;-65
2021/12/02 07:38:11;;;;;;;1.13;0.30;;;3.20;99.90;;;;;;5059904;28;20133;-65
2021/12/02 07:40:40;;;;;;;1.15;0.20;;;3.00;99.90;;;;;;5060595;28;20055;-65
2021/12/02 07:43:06;;;;;;;3.13;0.30;;;3.00;99.90;;;;;;5058834;28;20056;-65
2021/12/02 07:45:35;;;;;;;2.65;0.30;;;3.10;99.90;;;;;;5060104;28;20041;-65
2021/12/02 07:48:06;;;;;;;4.22;0.40;;;3.10;99.90;;;;;;5058919;28;20160;-65
2021/12/02 07:50:33;;;;;;;1.95;0.40;;;3.10;99.90;;;;;;5060185;28;20111;-64
2021/12/02 07:53:08;;;;;;;2.63;0.35;;;3.10;99.90;;;;;;5059674;28;20060;-65
2021/12/02 07:55:40;;;;;;;1.65;0.40;;;3.10;99.90;;;;;;5058077;28;20048;-65
2021/12/02 07:58:08;;;;;;;1.02;0.30;;;3.10;99.90;;;;;;5058566;28;20047;-65
2021/12/02 08:00:34;;;;;;;2.40;0.32;;;3.10;99.90;;;;;;5058905;28;20132;-65
2021/12/02 08:03:00;;;;;;;1.92;0.22;;;3.10;99.90;;;;;;5056855;28;20052;-65
2021/12/02 08:05:27;;;;;;;1.33;0.30;;;3.10;99.90;;;;;;5076985;28;20045;-65
2021/12/02 08:07:54;;;;;;;2.17;0.45;;;3.20;99.90;;;;;;5058656;28;20037;-65
2021/12/02 08:10:20;;;;;;;2.25;0.25;;;3.20;99.90;;;;;;5062044;28;20040;-65
2021/12/02 08:12:48;;;;;;;1.10;0.20;;;3.20;99.90;;;;;;5058550;28;20529;-65
2021/12/02 08:15:16;;;;;;;3.88;0.75;;;3.20;99.90;;;;;;5057274;28;20048;-65
2021/12/02 08:17:43;;;;;;;1.02;0.20;;;3.30;99.90;;;;;;5060682;28;20028;-64
2021/12/02 08:20:09;;;;;;;1.60;0.10;;;3.30;99.90;;;;;;5057297;28;20086;-65
2021/12/02 08:22:35;;;;;;;2.30;0.20;;;3.30;99.90;;;;;;5057612;28;20044;-64
2021/12/02 08:25:02;;;;;;;2.65;0.10;;;3.40;99.90;;;;;;5059898;28;20806;-65
2021/12/02 08:27:28;;;;;;;1.00;0.10;;;3.40;99.90;;;;;;5059106;28;20623;-65
2021/12/02 08:29:54;;;;;;;2.25;0.10;;;3.40;99.90;;;;;;5058662;28;20123;-65
2021/12/02 08:32:20;;;;;;;2.17;0.10;;;3.40;99.90;;;;;;5058670;28;20033;-65
2021/12/02 08:34:46;;;;;;;3.38;0.00;;;3.30;99.90;;;;;;5057883;28;20517;-64
2021/12/02 08:37:12;;;;;;;0.52;0.00;;;3.30;99.90;;;;;;5054556;28;20049;-65
2021/12/02 08:39:40;;;;;;;1.63;0.20;;;3.30;99.90;;;;;;5090418;28;20115;-64
2021/12/02 08:42:08;;;;;;;0.73;0.10;;;3.30;99.90;;;;;;5042873;28;20044;-64
2021/12/02 08:44:37;;;;;;;3.10;0.10;;;3.20;99.90;;;;;;5057113;28;20047;-64
2021/12/02 08:47:04;;;;;;;1.60;0.10;;;3.20;99.90;;;;;;5057690;28;20504;-64
2021/12/02 08:49:30;;;;;;;0.60;0.10;;;3.20;99.90;;;;;;5059227;28;20076;-65
2021/12/02 08:51:55;;;;;;;1.33;0.35;;;3.30;99.90;;;;;;5056256;28;20076;-64
2021/12/02 08:54:21;;;;;;;2.15;0.10;;;3.20;99.90;;;;;;5058455;28;20041;-65
2021/12/02 08:56:47;;;;;;;1.02;0.08;;;3.20;99.90;;;;;;5057372;28;20032;-65
2021/12/02 08:59:14;;;;;;;1.98;0.25;;;3.20;99.90;;;;;;5058173;28;20048;-65
2021/12/02 09:01:40;;;;;;;1.75;0.20;;;3.20;99.90;;;;;;5059783;28;20445;-65
2021/12/02 09:04:05;;;;;;;0.95;0.20;;;3.20;99.90;;;;;;5057839;28;20036;-65
2021/12/02 09:06:32;;;;;;;1.17;0.13;;;3.30;99.90;;;;;;5058289;28;20036;-65
2021/12/02 09:08:59;;;;;;;2.67;0.30;;;3.20;99.90;;;;;;5056680;28;20040;-65
2021/12/02 09:11:28;;;;;;;1.38;0.20;;;3.20;99.90;;;;;;5089907;28;20721;-64
2021/12/02 09:13:57;;;;;;;2.75;0.30;;;3.30;99.90;;;;;;5088551;28;20055;-64
2021/12/02 09:16:29;;;;;;;2.30;0.50;;;3.20;99.90;;;;;;5056905;28;20048;-64
2021/12/02 09:18:55;;;;;;;1.55;0.40;;;3.30;99.90;;;;;;5056224;28;20131;-64
2021/12/02 09:21:21;;;;;;;3.75;0.32;;;3.30;99.90;;;;;;5057034;28;20047;-64
2021/12/02 09:23:48;;;;;;;1.65;0.30;;;3.40;99.90;;;;;;5057001;28;20055;-64
2021/12/02 09:26:13;;;;;;;5.00;0.30;;;3.50;99.90;;;;;;5060119;28;20386;-64
2021/12/02 09:28:40;;;;;;;1.00;0.20;;;3.50;99.90;;;;;;5055771;28;20048;-64
2021/12/02 09:31:06;;;;;;;1.83;0.28;;;3.60;99.90;;;;;;5055866;28;20946;-64
2021/12/02 09:33:31;;;;;;;1.02;0.20;;;3.60;99.90;;;;;;5056238;28;20045;-65
2021/12/02 09:35:57;;;;;;;3.08;0.20;;;3.70;99.90;;;;;;5056722;28;21729;-65
2021/12/02 09:38:23;;;;;;;2.08;0.20;;;3.80;99.90;;;;;;5053227;28;20146;-64
2021/12/02 09:40:48;;;;;;;5.25;0.30;;;3.70;99.90;;;;;;5054870;28;20068;-64
2021/12/02 09:43:18;;;;;;;1.48;0.20;;;3.80;99.90;;;;;;5089299;28;20032;-65
2021/12/02 09:45:44;;;;;;;3.10;0.20;;;3.80;99.90;;;;;;5055235;28;20114;-64
2021/12/02 09:48:10;;;;;;;1.65;0.20;;;4.00;99.90;;;;;;5090831;28;20494;-65
2021/12/02 09:50:51;;;;;;;1.80;0.30;;;4.10;99.90;;;;;;5060335;28;20050;-64
2021/12/02 09:53:21;;;;;;;1.95;0.30;;;4.10;99.90;;;;;;5058653;28;20028;-65
2021/12/02 09:58:32;;;;;;;2.97;0.32;;;4.40;99.90;;;;;;5057298;28;20049;-65
2021/12/02 10:03:32;;;;;;;1.98;0.38;;;4.50;99.90;;;;;;5058402;28;20048;-65
2021/12/02 10:06:03;;;;;;;6.10;0.30;;;4.50;99.90;;;;;;5056051;28;20037;-64
2021/12/02 10:08:32;;;;;;;2.15;0.40;;;4.50;99.90;;;;;;5057704;28;20536;-64
2021/12/02 10:11:05;;;;;;;1.50;0.20;;;4.50;99.90;;;;;;5090272;28;20056;-64
2021/12/02 10:13:48;;;;;;;1.58;0.30;;;4.50;99.90;;;;;;5059520;28;20375;-64
2021/12/02 10:16:25;;;;;;;1.50;0.32;;;4.50;99.90;;;;;;5061738;28;20032;-65
2021/12/02 10:18:56;;;;;;;1.52;0.20;;;4.50;99.90;;;;;;5061057;28;20075;-64
2021/12/02 10:21:28;;;;;;;2.13;0.30;;;4.70;99.90;;;;;;5061665;28;20040;-64
2021/12/02 10:23:54;;;;;;;5.57;0.43;;;4.50;99.90;;;;;;5061050;28;20044;-64
2021/12/02 10:26:22;;;;;;;2.17;0.30;;;4.70;99.90;;;;;;5092041;28;20090;-64
2021/12/02 10:28:51;;;;;;;3.65;0.50;;;4.80;99.90;;;;;;5057444;28;20040;-64
2021/12/02 10:31:25;;;;;;;3.35;0.43;;;4.90;99.90;;;;;;5093123;28;20502;-65
2021/12/02 10:33:57;;;;;;;0.60;0.20;;;5.00;99.90;;;;;;5059370;28;20045;-64
2021/12/02 10:36:32;;;;;;;3.65;0.40;;;5.00;99.90;;;;;;5061628;28;20091;-64
2021/12/02 10:39:14;;;;;;;2.30;0.43;;;5.10;99.90;;;;;;5061034;28;20182;-65
2021/12/02 10:41:43;;;;;;;2.65;0.43;;;5.00;99.90;;;;;;5060723;28;20111;-65
2021/12/02 10:44:33;;;;;;;1.92;0.30;;;5.00;99.90;;;;;;5061953;28;20040;-64
2021/12/02 10:47:05;;;;;;;2.45;0.30;;;5.10;99.90;;;;;;5060427;28;20087;-64
2021/12/02 10:49:34;;;;;;;0.57;0.10;;;5.00;99.90;;;;;;5059412;28;20131;-64
2021/12/02 10:52:03;;;;;;;0.82;0.43;;;4.80;99.90;;;;;;5059694;28;20044;-64
2021/12/02 10:54:41;;;;;;;0.22;0.00;;;4.50;99.90;;;;;;5061506;28;20048;-64
2021/12/02 10:57:17;;;;;;;0.20;0.00;;;4.20;99.90;;;;;;5058683;28;20044;-64
2021/12/02 10:59:57;;;;;;;1.02;0.00;;;4.00;99.90;;;;;;5059300;28;21512;-64
2021/12/02 11:02:27;;;;;;;0.40;0.00;;;3.90;99.90;;;;;;5056842;28;20036;-64
2021/12/02 11:05:24;;;;;;;0.85;0.10;;;3.80;99.90;;;;;;5057128;28;20541;-64
2021/12/02 11:08:05;;;;;;;0.40;0.00;;;3.50;99.90;;;;;;5061149;28;20119;-64
2021/12/02 11:10:34;;;;;;;0.57;0.10;;;3.30;99.90;;;;;;5060075;28;20067;-64
2021/12/02 11:13:00;;;;;;;1.67;0.00;;;3.30;99.90;;;;;;5057786;28;20049;-64
2021/12/02 11:15:29;;;;;;;1.55;0.00;;;3.40;99.90;;;;;;5059509;28;20038;-65
2021/12/02 11:18:11;;;;;;;0.13;0.00;;;3.40;99.90;;;;;;5059251;28;20111;-64
2021/12/02 11:20:46;;;;;;;0.00;0.00;;;3.40;99.90;;;;;;5058894;28;20075;-64
2021/12/02 11:23:15;;;;;;;3.15;0.10;;;3.50;99.90;;;;;;5042469;28;20127;-65
2021/12/02 11:26:00;;;;;;;0.08;0.00;;;3.50;99.90;;;;;;5078332;28;20071;-64
2021/12/02 11:28:29;;;;;;;0.65;0.00;;;3.60;99.90;;;;;;5061328;28;20043;-64
2021/12/02 11:30:56;;;;;;;0.43;0.00;;;3.60;99.90;;;;;;5063566;28;20394;-64
2021/12/02 11:33:29;;;;;;;0.80;0.00;;;3.60;99.90;;;;;;5059225;28;20142;-64
2021/12/02 11:35:55;;;;;;;0.10;0.00;;;3.30;99.90;;;;;;5057956;28;20059;-64
2021/12/02 11:38:24;;;;;;;0.00;0.00;;;3.20;99.90;;;;;;5061643;28;20040;-64
2021/12/02 11:40:54;;;;;;;0.47;0.00;;;3.30;99.90;;;;;;5062880;28;20033;-64
2021/12/02 11:43:31;;;;;;;0.20;0.00;;;3.40;99.90;;;;;;5057821;28;20163;-64
2021/12/02 11:45:59;;;;;;;0.10;0.00;;;3.50;99.90;;;;;;5060618;28;20067;-64
2021/12/02 11:48:40;;;;;;;0.45;0.10;;;3.60;99.90;;;;;;5061131;28;20725;-64
2021/12/02 11:51:17;;;;;;;0.22;0.08;;;3.60;99.90;;;;;;5058582;28;20549;-64
2021/12/02 11:53:44;;;;;;;0.32;0.00;;;3.60;99.90;;;;;;5060674;28;20123;-64
2021/12/02 11:56:18;;;;;;;0.43;0.10;;;3.60;99.90;;;;;;5056879;28;20124;-64
2021/12/02 11:58:45;;;;;;;0.15;0.00;;;3.60;99.90;;;;;;5057165;28;20044;-64
2021/12/02 12:01:17;;;;;;;1.67;0.20;;;3.50;99.90;;;;;;5091572;28;20040;-64
2021/12/02 12:03:55;;;;;;;0.93;0.10;;;3.60;99.90;;;;;;5058087;28;20033;-64
2021/12/02 12:06:28;;;;;;;0.55;0.10;;;3.50;99.90;;;;;;5045284;28;20615;-64
2021/12/02 12:08:57;;;;;;;2.05;0.10;;;3.40;99.90;;;;;;5065338;28;20074;-64
2021/12/02 12:11:32;;;;;;;1.58;0.10;;;3.30;99.90;;;;;;5059794;28;20167;-64
2021/12/02 12:14:13;;;;;;;0.68;0.10;;;3.30;99.90;;;;;;5060225;28;20041;-64
2021/12/02 12:16:48;;;;;;;1.65;0.10;;;3.20;99.90;;;;;;5059590;28;20127;-64
2021/12/02 12:19:16;;;;;;;0.40;0.10;;;3.20;99.90;;;;;;5061261;28;20034;-64
2021/12/02 12:21:49;;;;;;;0.60;0.13;;;3.30;99.90;;;;;;5058329;28;20132;-64
2021/12/02 12:24:15;;;;;;;1.20;0.13;;;3.20;99.90;;;;;;5058458;28;20142;-64
2021/12/02 12:26:46;;;;;;;0.80;0.00;;;3.30;99.90;;;;;;5058898;28;20050;-64
2021/12/02 12:29:15;;;;;;;0.43;0.10;;;3.20;99.90;;;;;;5059122;28;20441;-64
2021/12/02 12:32:12;;;;;;;0.55;0.10;;;3.20;99.90;;;;;;5058611;28;20044;-65
2021/12/02 12:34:48;;;;;;;1.48;0.00;;;3.20;99.90;;;;;;5088989;28;20044;-64
2021/12/02 12:37:57;;;;;;;2.83;0.10;;;3.20;99.90;;;;;;5060382;28;20071;-64
2021/12/02 12:40:05;;;;;;;0.68;0.10;;;3.20;99.90;;;;;;5052037;28;20410;-64
2021/12/02 12:42:31;;;;;;;1.05;0.13;;;3.30;99.90;;;;;;5091886;28;20068;-64
2021/12/02 12:44:59;;;;;;;0.43;0.10;;;3.10;99.90;;;;;;5058881;28;20043;-64
2021/12/02 12:47:45;;;;;;;0.60;0.10;;;3.50;99.90;;;;;;5058541;28;20398;-65
2021/12/02 12:50:38;;;;;;;1.15;0.10;;;3.60;99.90;;;;;;5057431;28;20066;-64
2021/12/02 12:55:41;;;;;;;0.70;0.17;;;3.90;99.90;;;;;;5058496;28;20097;-64
2021/12/02 12:58:29;;;;;;;2.05;0.20;;;3.90;99.90;;;;;;5042255;28;20063;-64
2021/12/02 13:00:59;;;;;;;2.22;0.20;;;4.00;99.90;;;;;;5057857;28;20095;-64
2021/12/02 13:03:43;;;;;;;5.03;1.65;;;4.00;99.90;;;;;;5060893;28;20763;-64
2021/12/02 13:06:19;;;;;;;1.27;0.10;;;4.00;99.90;;;;;;5057848;28;20826;-64
2021/12/02 13:08:53;;;;;;;1.02;0.10;;;3.90;99.90;;;;;;5058153;28;20413;-64
2021/12/02 13:11:24;;;;;;;0.60;0.20;;;4.00;99.90;;;;;;5060291;28;20048;-64
2021/12/02 13:13:51;;;;;;;1.30;0.20;;;4.00;99.90;;;;;;5090023;28;20063;-64
2021/12/02 13:16:18;;;;;;;2.08;0.20;;;4.00;99.90;;;;;;5058094;28;20056;-64
2021/12/02 13:18:52;;;;;;;2.72;0.50;;;3.90;99.90;;;;;;5058502;28;20048;-64
2021/12/02 13:21:30;;;;;;;1.73;0.30;;;3.90;99.90;;;;;;5062804;28;20075;-64